LA HONDA (LAH)

Elevation: 425' · SAN GREGORIO CR basin · Operator: CAL FIRE

Query executed Tuesday at 2:49:33   clock

Provisional data, subject to change.
Select a sensor type for a plot of data.

Earlier

Date   /   Time   RAIN     TEMP     REL HUM     FUEL MS     FUEL TP     WIND SP     WIND DR     PEAK WS     PEAK WD     SOLAR R     BAT VOL    
(PDT)INCHES   DEG F   %   %   DEG F   MPH   DEG   MPH   DEG   W/M^2   VOLTS  
04/27/2015 02:00 28.17 54 87 20 49 3 291 14 348 0.00 12.8
04/27/2015 03:00 28.17 48 94 21 44 2 88 4 81 0.00 12.7
04/27/2015 04:00 28.17 48 98 22 44 2 81 5 79 0.00 12.7
04/27/2015 05:00 28.17 49 99 23 45 3 58 7 67 0.00 12.7
04/27/2015 06:00 28.17 57 73 23 49 3 91 7 45 0.00 12.7
04/27/2015 07:00 28.17 61 63 25 52 6 57 11 90 11.00 12.7
04/27/2015 08:00 28.17 68 48 22 63 6 43 14 41 182.00 13.6
04/27/2015 09:00 28.17 72 42 18 73 5 14 14 57 388.00 13.7
04/27/2015 10:00 28.17 75 38 15 80 5 350 14 59 588.00 13.7
04/27/2015 11:00 28.17 76 34 12 80 6 22 15 45 759.00 13.6
04/27/2015 12:00 28.17 76 33 10 85 7 64 17 356 884.00 13.6
04/27/2015 13:00 28.17 77 31 9 90 8 47 19 57 951.00 13.5
04/27/2015 14:00 28.17 80 31 8 95 3 285 16 346 957.00 13.5
04/27/2015 15:00 28.17 77 45 8 87 3 259 9 289 910.00 13.4
04/27/2015 16:00 28.17 72 51 8 87 4 249 7 233 792.00 13.5
04/27/2015 17:00 28.17 71 55 7 82 4 248 8 229 629.00 14.2
04/27/2015 18:00 28.17 68 57 8 72 3 244 7 234 423.00 13.8
04/27/2015 19:00 28.17 58 71 8 58 3 255 6 238 54.00 13.4
04/27/2015 20:00 28.17 50 95 9 51 2 246 5 231 15.00 13.2
04/27/2015 21:00 28.17 49 100 10 51 2 239 4 225 0.00 13.1
04/27/2015 22:00 28.17 49 100 11 50 1 257 4 234 0.00 13.0
04/27/2015 23:00 28.17 48 100 13 49 3 223 4 222 0.00 12.9
04/28/2015 00:00 28.17 48 100 14 49 2 35 4 0 0.00 12.8
04/28/2015 01:00 28.17 48 100 16 49 1 210 5 20 0.00 12.8
04/28/2015 02:00 28.17 48 100 17 49 3 56 5 20 0.00 12.7

Later | Latest

Warning! This data is preliminary and subject to revision.

Show LAH Map | 24 Hours LAH Data | Plot all LAH Sensors | Daily LAH Data | LAH Info